NCAR-RAP Real-Time Weather Data

Output produced by METARs form (22 June 2017  22:14 UTC)
found at http://weather.rap.ucar.edu/surface/
 
Conditions at: K4O4 observed 22 June 2017  21:55 UTC
Temperature: 29.0°C (84°F)
Dewpoint: 16.0°C (61°F) [RH = 45%]
Pressure (altimeter): 29.64 inches Hg (1003.8 mb)
Winds: from the E (100 degrees) at 6 MPH (5 knots; 2.6 m/s)
Visibility: missing
Ceiling: at least 12,000 feet AGL
Clouds: sky clear below 12,000 feet AGL
Present Weather: automated observation with no human augmentation;
there may or may not be significant weather present at this time
K4O4 222155Z AUTO 10005KT CLR 29/16 A2964 RMK AO2